sensor_id;sensor_type;location;lat;lon;timestamp;temperature;humidity
2012;DHT22;1009;51.436;6.972;2022-11-20T00:02:18;0.80;99.90
2012;DHT22;1009;51.436;6.972;2022-11-20T00:04:44;0.70;99.90
2012;DHT22;1009;51.436;6.972;2022-11-20T00:07:11;0.80;99.90
2012;DHT22;1009;51.436;6.972;2022-11-20T00:09:38;0.80;99.90
2012;DHT22;1009;51.436;6.972;2022-11-20T00:12:05;0.80;99.90
2012;DHT22;1009;51.436;6.972;2022-11-20T00:14:33;0.80;99.90
2012;DHT22;1009;51.436;6.972;2022-11-20T00:17:00;0.70;99.90
2012;DHT22;1009;51.436;6.972;2022-11-20T00:19:27;0.70;99.90
2012;DHT22;1009;51.436;6.972;2022-11-20T00:21:54;0.60;99.90
2012;DHT22;1009;51.436;6.972;2022-11-20T00:24:21;0.60;99.90
2012;DHT22;1009;51.436;6.972;2022-11-20T00:26:47;0.50;99.90
2012;DHT22;1009;51.436;6.972;2022-11-20T00:29:14;0.40;99.90
2012;DHT22;1009;51.436;6.972;2022-11-20T00:31:42;0.50;99.90
2012;DHT22;1009;51.436;6.972;2022-11-20T00:34:09;0.60;99.90
2012;DHT22;1009;51.436;6.972;2022-11-20T00:36:36;0.70;99.90
2012;DHT22;1009;51.436;6.972;2022-11-20T00:39:03;0.60;99.90
2012;DHT22;1009;51.436;6.972;2022-11-20T00:41:30;0.60;99.90
2012;DHT22;1009;51.436;6.972;2022-11-20T00:43:57;0.60;99.90
2012;DHT22;1009;51.436;6.972;2022-11-20T00:46:25;0.50;99.90
2012;DHT22;1009;51.436;6.972;2022-11-20T00:48:54;0.40;99.90
2012;DHT22;1009;51.436;6.972;2022-11-20T00:51:22;0.40;99.90
2012;DHT22;1009;51.436;6.972;2022-11-20T00:53:49;0.50;99.90
2012;DHT22;1009;51.436;6.972;2022-11-20T00:56:18;0.40;99.90
2012;DHT22;1009;51.436;6.972;2022-11-20T00:58:46;0.40;99.90
2012;DHT22;1009;51.436;6.972;2022-11-20T01:01:15;0.40;99.90
2012;DHT22;1009;51.436;6.972;2022-11-20T01:03:44;0.40;99.90
2012;DHT22;1009;51.436;6.972;2022-11-20T01:06:15;0.50;99.90
2012;DHT22;1009;51.436;6.972;2022-11-20T01:08:42;0.30;99.90
2012;DHT22;1009;51.436;6.972;2022-11-20T01:11:10;0.40;99.90
2012;DHT22;1009;51.436;6.972;2022-11-20T01:13:38;0.60;99.90
2012;DHT22;1009;51.436;6.972;2022-11-20T01:16:06;0.50;99.90
2012;DHT22;1009;51.436;6.972;2022-11-20T01:18:34;0.60;99.90
2012;DHT22;1009;51.436;6.972;2022-11-20T01:21:02;0.60;99.90
2012;DHT22;1009;51.436;6.972;2022-11-20T01:23:35;0.70;99.90
2012;DHT22;1009;51.436;6.972;2022-11-20T01:26:03;0.60;99.90
2012;DHT22;1009;51.436;6.972;2022-11-20T01:28:30;0.70;99.90
2012;DHT22;1009;51.436;6.972;2022-11-20T01:30:57;0.80;99.90
2012;DHT22;1009;51.436;6.972;2022-11-20T01:33:24;0.70;99.90
2012;DHT22;1009;51.436;6.972;2022-11-20T01:35:51;0.70;99.90
2012;DHT22;1009;51.436;6.972;2022-11-20T01:38:18;0.70;99.90
2012;DHT22;1009;51.436;6.972;2022-11-20T01:40:55;0.70;99.90
2012;DHT22;1009;51.436;6.972;2022-11-20T01:43:22;0.80;99.90
2012;DHT22;1009;51.436;6.972;2022-11-20T01:45:57;0.80;99.90
2012;DHT22;1009;51.436;6.972;2022-11-20T01:48:28;0.60;99.90
2012;DHT22;1009;51.436;6.972;2022-11-20T01:50:57;0.50;99.90
2012;DHT22;1009;51.436;6.972;2022-11-20T01:53:27;0.40;99.90
2012;DHT22;1009;51.436;6.972;2022-11-20T01:55:59;0.50;99.90
2012;DHT22;1009;51.436;6.972;2022-11-20T01:58:30;0.50;99.90
2012;DHT22;1009;51.436;6.972;2022-11-20T02:00:58;0.50;99.90
2012;DHT22;1009;51.436;6.972;2022-11-20T02:03:26;0.50;99.90
2012;DHT22;1009;51.436;6.972;2022-11-20T02:05:57;0.60;99.90
2012;DHT22;1009;51.436;6.972;2022-11-20T02:08:25;0.60;99.90
2012;DHT22;1009;51.436;6.972;2022-11-20T02:10:52;0.70;99.90
2012;DHT22;1009;51.436;6.972;2022-11-20T02:13:20;0.80;99.90
2012;DHT22;1009;51.436;6.972;2022-11-20T02:16:05;0.80;99.90
2012;DHT22;1009;51.436;6.972;2022-11-20T02:18:35;0.80;99.90
2012;DHT22;1009;51.436;6.972;2022-11-20T02:21:06;0.80;99.90
2012;DHT22;1009;51.436;6.972;2022-11-20T02:23:38;0.90;99.90
2012;DHT22;1009;51.436;6.972;2022-11-20T02:26:10;0.80;99.90
2012;DHT22;1009;51.436;6.972;2022-11-20T02:28:38;0.70;99.90
2012;DHT22;1009;51.436;6.972;2022-11-20T02:31:05;0.60;99.90
2012;DHT22;1009;51.436;6.972;2022-11-20T02:33:33;0.60;99.90
2012;DHT22;1009;51.436;6.972;2022-11-20T02:35:59;0.70;99.90
2012;DHT22;1009;51.436;6.972;2022-11-20T02:38:26;0.60;99.90
2012;DHT22;1009;51.436;6.972;2022-11-20T02:40:53;0.70;99.90
2012;DHT22;1009;51.436;6.972;2022-11-20T02:43:21;0.90;99.90
2012;DHT22;1009;51.436;6.972;2022-11-20T02:45:48;0.90;99.90
2012;DHT22;1009;51.436;6.972;2022-11-20T02:48:15;0.90;99.90
2012;DHT22;1009;51.436;6.972;2022-11-20T02:50:42;0.80;99.90
2012;DHT22;1009;51.436;6.972;2022-11-20T02:53:08;0.80;99.90
2012;DHT22;1009;51.436;6.972;2022-11-20T02:55:35;0.80;99.90
2012;DHT22;1009;51.436;6.972;2022-11-20T02:58:02;0.90;99.90
2012;DHT22;1009;51.436;6.972;2022-11-20T03:00:30;0.80;99.90
2012;DHT22;1009;51.436;6.972;2022-11-20T03:02:57;1.00;99.90
2012;DHT22;1009;51.436;6.972;2022-11-20T03:05:24;1.00;99.90
2012;DHT22;1009;51.436;6.972;2022-11-20T03:07:51;0.90;99.90
2012;DHT22;1009;51.436;6.972;2022-11-20T03:10:17;1.00;99.90
2012;DHT22;1009;51.436;6.972;2022-11-20T03:12:44;1.10;99.90
2012;DHT22;1009;51.436;6.972;2022-11-20T03:15:11;1.10;99.90
2012;DHT22;1009;51.436;6.972;2022-11-20T03:17:39;1.10;99.90
2012;DHT22;1009;51.436;6.972;2022-11-20T03:20:08;1.10;99.90
2012;DHT22;1009;51.436;6.972;2022-11-20T03:22:34;1.10;99.90
2012;DHT22;1009;51.436;6.972;2022-11-20T03:25:01;1.20;99.90
2012;DHT22;1009;51.436;6.972;2022-11-20T03:27:32;1.30;99.90
2012;DHT22;1009;51.436;6.972;2022-11-20T03:29:59;1.20;99.90
2012;DHT22;1009;51.436;6.972;2022-11-20T03:32:26;1.00;99.90
2012;DHT22;1009;51.436;6.972;2022-11-20T03:34:54;1.00;99.90
2012;DHT22;1009;51.436;6.972;2022-11-20T03:37:21;1.10;99.90
2012;DHT22;1009;51.436;6.972;2022-11-20T03:39:48;1.00;99.90
2012;DHT22;1009;51.436;6.972;2022-11-20T03:42:14;1.00;99.90
2012;DHT22;1009;51.436;6.972;2022-11-20T03:44:55;1.10;99.90
2012;DHT22;1009;51.436;6.972;2022-11-20T03:47:22;1.20;99.90
2012;DHT22;1009;51.436;6.972;2022-11-20T03:49:49;1.00;99.90
2012;DHT22;1009;51.436;6.972;2022-11-20T03:52:17;1.00;99.90
2012;DHT22;1009;51.436;6.972;2022-11-20T03:54:44;1.00;99.90
2012;DHT22;1009;51.436;6.972;2022-11-20T03:57:11;1.10;99.90
2012;DHT22;1009;51.436;6.972;2022-11-20T03:59:37;1.10;99.90
2012;DHT22;1009;51.436;6.972;2022-11-20T04:02:04;1.10;99.90
2012;DHT22;1009;51.436;6.972;2022-11-20T04:04:31;1.00;99.90
2012;DHT22;1009;51.436;6.972;2022-11-20T04:06:57;1.10;99.90
2012;DHT22;1009;51.436;6.972;2022-11-20T04:09:25;1.10;99.90
2012;DHT22;1009;51.436;6.972;2022-11-20T04:11:52;1.20;99.90
2012;DHT22;1009;51.436;6.972;2022-11-20T04:14:19;1.20;99.90
2012;DHT22;1009;51.436;6.972;2022-11-20T04:16:46;1.30;99.90
2012;DHT22;1009;51.436;6.972;2022-11-20T04:19:15;1.20;99.90
2012;DHT22;1009;51.436;6.972;2022-11-20T04:21:42;1.20;99.90
2012;DHT22;1009;51.436;6.972;2022-11-20T04:24:09;1.20;99.90
2012;DHT22;1009;51.436;6.972;2022-11-20T04:26:38;1.30;99.90
2012;DHT22;1009;51.436;6.972;2022-11-20T04:29:05;1.30;99.90
2012;DHT22;1009;51.436;6.972;2022-11-20T04:31:33;1.30;99.90
2012;DHT22;1009;51.436;6.972;2022-11-20T04:34:01;1.30;99.90
2012;DHT22;1009;51.436;6.972;2022-11-20T04:36:29;1.40;99.90
2012;DHT22;1009;51.436;6.972;2022-11-20T04:38:57;1.50;99.90
2012;DHT22;1009;51.436;6.972;2022-11-20T04:41:26;1.40;99.90
2012;DHT22;1009;51.436;6.972;2022-11-20T04:43:56;1.50;99.90
2012;DHT22;1009;51.436;6.972;2022-11-20T04:46:25;1.60;99.90
2012;DHT22;1009;51.436;6.972;2022-11-20T04:48:52;1.50;99.90
2012;DHT22;1009;51.436;6.972;2022-11-20T04:51:19;1.50;99.90
2012;DHT22;1009;51.436;6.972;2022-11-20T04:53:46;1.50;99.90
2012;DHT22;1009;51.436;6.972;2022-11-20T04:56:13;1.60;99.90
2012;DHT22;1009;51.436;6.972;2022-11-20T04:58:40;1.70;99.90
2012;DHT22;1009;51.436;6.972;2022-11-20T05:01:11;1.70;99.90
2012;DHT22;1009;51.436;6.972;2022-11-20T05:03:38;1.70;99.90
2012;DHT22;1009;51.436;6.972;2022-11-20T05:06:07;1.70;99.90
2012;DHT22;1009;51.436;6.972;2022-11-20T05:08:34;1.70;99.90
2012;DHT22;1009;51.436;6.972;2022-11-20T05:11:01;1.70;99.90
2012;DHT22;1009;51.436;6.972;2022-11-20T05:13:28;1.60;99.90
2012;DHT22;1009;51.436;6.972;2022-11-20T05:15:55;1.80;99.90
2012;DHT22;1009;51.436;6.972;2022-11-20T05:18:23;1.80;99.90
2012;DHT22;1009;51.436;6.972;2022-11-20T05:20:55;1.90;99.90
2012;DHT22;1009;51.436;6.972;2022-11-20T05:23:21;2.00;99.90
2012;DHT22;1009;51.436;6.972;2022-11-20T05:25:48;1.90;99.90
2012;DHT22;1009;51.436;6.972;2022-11-20T05:28:17;1.80;99.90
2012;DHT22;1009;51.436;6.972;2022-11-20T05:30:44;1.90;99.90
2012;DHT22;1009;51.436;6.972;2022-11-20T05:33:11;1.90;99.90
2012;DHT22;1009;51.436;6.972;2022-11-20T05:35:39;2.00;99.90
2012;DHT22;1009;51.436;6.972;2022-11-20T05:38:06;2.10;99.90
2012;DHT22;1009;51.436;6.972;2022-11-20T05:40:32;2.00;99.90
2012;DHT22;1009;51.436;6.972;2022-11-20T05:42:59;2.10;99.90
2012;DHT22;1009;51.436;6.972;2022-11-20T05:45:26;2.10;99.90
2012;DHT22;1009;51.436;6.972;2022-11-20T05:47:53;2.20;99.90
2012;DHT22;1009;51.436;6.972;2022-11-20T05:50:20;2.30;99.90
2012;DHT22;1009;51.436;6.972;2022-11-20T05:52:48;2.30;99.90
2012;DHT22;1009;51.436;6.972;2022-11-20T05:55:15;2.40;99.90
2012;DHT22;1009;51.436;6.972;2022-11-20T05:57:41;2.40;99.90
2012;DHT22;1009;51.436;6.972;2022-11-20T06:00:09;2.50;99.90
2012;DHT22;1009;51.436;6.972;2022-11-20T06:02:36;2.50;99.90
2012;DHT22;1009;51.436;6.972;2022-11-20T06:05:03;2.50;99.90
2012;DHT22;1009;51.436;6.972;2022-11-20T06:07:30;2.50;99.90
2012;DHT22;1009;51.436;6.972;2022-11-20T06:09:58;2.50;99.90
2012;DHT22;1009;51.436;6.972;2022-11-20T06:12:25;2.60;99.90
2012;DHT22;1009;51.436;6.972;2022-11-20T06:14:51;2.70;99.90
2012;DHT22;1009;51.436;6.972;2022-11-20T06:17:18;2.80;99.90
2012;DHT22;1009;51.436;6.972;2022-11-20T06:19:45;2.80;99.90
2012;DHT22;1009;51.436;6.972;2022-11-20T06:22:12;2.90;99.90
2012;DHT22;1009;51.436;6.972;2022-11-20T06:24:39;2.90;99.90
2012;DHT22;1009;51.436;6.972;2022-11-20T06:27:07;2.80;99.90
2012;DHT22;1009;51.436;6.972;2022-11-20T06:29:34;2.70;99.90
2012;DHT22;1009;51.436;6.972;2022-11-20T06:32:01;2.60;99.90
2012;DHT22;1009;51.436;6.972;2022-11-20T06:34:27;2.60;99.90
2012;DHT22;1009;51.436;6.972;2022-11-20T06:36:54;2.70;99.90
2012;DHT22;1009;51.436;6.972;2022-11-20T06:39:21;2.70;99.90
2012;DHT22;1009;51.436;6.972;2022-11-20T06:41:47;2.70;99.90
2012;DHT22;1009;51.436;6.972;2022-11-20T06:44:15;2.80;99.90
2012;DHT22;1009;51.436;6.972;2022-11-20T06:46:42;2.80;99.90
2012;DHT22;1009;51.436;6.972;2022-11-20T06:49:09;2.60;99.90
2012;DHT22;1009;51.436;6.972;2022-11-20T06:51:36;2.40;99.90
2012;DHT22;1009;51.436;6.972;2022-11-20T06:54:03;2.30;99.90
2012;DHT22;1009;51.436;6.972;2022-11-20T06:56:29;2.30;99.90
2012;DHT22;1009;51.436;6.972;2022-11-20T06:58:56;2.30;99.90
2012;DHT22;1009;51.436;6.972;2022-11-20T07:01:24;2.30;99.90
2012;DHT22;1009;51.436;6.972;2022-11-20T07:03:51;2.30;99.90
2012;DHT22;1009;51.436;6.972;2022-11-20T07:06:17;2.30;99.90
2012;DHT22;1009;51.436;6.972;2022-11-20T07:08:44;2.40;99.90
2012;DHT22;1009;51.436;6.972;2022-11-20T07:11:12;2.40;99.90
2012;DHT22;1009;51.436;6.972;2022-11-20T07:13:39;2.50;99.90
2012;DHT22;1009;51.436;6.972;2022-11-20T07:16:08;2.50;99.90
2012;DHT22;1009;51.436;6.972;2022-11-20T07:18:36;2.40;99.90
2012;DHT22;1009;51.436;6.972;2022-11-20T07:21:05;2.30;99.90
2012;DHT22;1009;51.436;6.972;2022-11-20T07:23:32;2.40;99.90
2012;DHT22;1009;51.436;6.972;2022-11-20T07:26:02;2.40;99.90
2012;DHT22;1009;51.436;6.972;2022-11-20T07:28:29;2.50;99.90
2012;DHT22;1009;51.436;6.972;2022-11-20T07:30:56;2.50;99.90
2012;DHT22;1009;51.436;6.972;2022-11-20T07:33:22;2.60;99.90
2012;DHT22;1009;51.436;6.972;2022-11-20T07:35:51;2.60;99.90
2012;DHT22;1009;51.436;6.972;2022-11-20T07:38:17;2.60;99.90
2012;DHT22;1009;51.436;6.972;2022-11-20T07:40:44;2.50;99.90
2012;DHT22;1009;51.436;6.972;2022-11-20T07:43:11;2.60;99.90
2012;DHT22;1009;51.436;6.972;2022-11-20T07:45:37;2.60;99.90
2012;DHT22;1009;51.436;6.972;2022-11-20T07:48:04;2.70;99.90
2012;DHT22;1009;51.436;6.972;2022-11-20T07:50:31;2.80;99.90
2012;DHT22;1009;51.436;6.972;2022-11-20T07:53:04;2.80;99.90
2012;DHT22;1009;51.436;6.972;2022-11-20T07:55:31;2.80;99.90
2012;DHT22;1009;51.436;6.972;2022-11-20T07:57:58;2.80;99.90
2012;DHT22;1009;51.436;6.972;2022-11-20T08:00:25;2.90;99.90
2012;DHT22;1009;51.436;6.972;2022-11-20T08:02:52;2.90;99.90
2012;DHT22;1009;51.436;6.972;2022-11-20T08:05:19;2.90;99.90
2012;DHT22;1009;51.436;6.972;2022-11-20T08:07:46;3.00;99.90
2012;DHT22;1009;51.436;6.972;2022-11-20T08:10:15;3.00;99.90
2012;DHT22;1009;51.436;6.972;2022-11-20T08:12:45;3.00;99.90
2012;DHT22;1009;51.436;6.972;2022-11-20T08:15:30;3.00;99.90
2012;DHT22;1009;51.436;6.972;2022-11-20T08:18:02;3.00;99.90
2012;DHT22;1009;51.436;6.972;2022-11-20T08:20:29;3.10;99.90
2012;DHT22;1009;51.436;6.972;2022-11-20T08:23:00;3.20;99.90
2012;DHT22;1009;51.436;6.972;2022-11-20T08:25:28;3.20;99.90
2012;DHT22;1009;51.436;6.972;2022-11-20T08:27:57;3.20;99.90
2012;DHT22;1009;51.436;6.972;2022-11-20T08:30:25;3.20;99.90
2012;DHT22;1009;51.436;6.972;2022-11-20T08:32:52;3.20;99.90
2012;DHT22;1009;51.436;6.972;2022-11-20T08:35:18;3.20;99.90
2012;DHT22;1009;51.436;6.972;2022-11-20T08:37:46;3.30;99.90
2012;DHT22;1009;51.436;6.972;2022-11-20T08:40:13;3.40;99.90
2012;DHT22;1009;51.436;6.972;2022-11-20T08:42:47;3.50;99.90
2012;DHT22;1009;51.436;6.972;2022-11-20T08:45:14;3.40;99.90
2012;DHT22;1009;51.436;6.972;2022-11-20T08:47:41;3.50;99.90
2012;DHT22;1009;51.436;6.972;2022-11-20T08:50:09;3.60;99.90
2012;DHT22;1009;51.436;6.972;2022-11-20T08:52:36;3.70;99.90
2012;DHT22;1009;51.436;6.972;2022-11-20T08:55:04;3.70;99.90
2012;DHT22;1009;51.436;6.972;2022-11-20T08:57:31;3.70;99.90
2012;DHT22;1009;51.436;6.972;2022-11-20T08:59:59;3.70;99.90
2012;DHT22;1009;51.436;6.972;2022-11-20T09:02:26;3.80;99.90
2012;DHT22;1009;51.436;6.972;2022-11-20T09:04:53;3.80;99.90
2012;DHT22;1009;51.436;6.972;2022-11-20T09:07:20;4.00;99.90
2012;DHT22;1009;51.436;6.972;2022-11-20T09:09:47;4.10;99.90
2012;DHT22;1009;51.436;6.972;2022-11-20T09:12:14;4.10;99.90
2012;DHT22;1009;51.436;6.972;2022-11-20T09:14:41;4.10;99.90
2012;DHT22;1009;51.436;6.972;2022-11-20T09:17:09;4.10;99.90
2012;DHT22;1009;51.436;6.972;2022-11-20T09:19:38;4.20;99.90
2012;DHT22;1009;51.436;6.972;2022-11-20T09:22:06;4.10;99.90
2012;DHT22;1009;51.436;6.972;2022-11-20T09:24:33;4.20;99.90
2012;DHT22;1009;51.436;6.972;2022-11-20T09:27:02;4.30;99.90
2012;DHT22;1009;51.436;6.972;2022-11-20T09:29:29;4.40;99.90
2012;DHT22;1009;51.436;6.972;2022-11-20T09:31:56;4.40;99.90
2012;DHT22;1009;51.436;6.972;2022-11-20T09:34:24;4.40;99.90
2012;DHT22;1009;51.436;6.972;2022-11-20T09:36:51;4.50;99.90
2012;DHT22;1009;51.436;6.972;2022-11-20T09:39:17;4.60;99.90
2012;DHT22;1009;51.436;6.972;2022-11-20T09:42:03;4.50;99.90
2012;DHT22;1009;51.436;6.972;2022-11-20T09:47:34;4.70;99.90
2012;DHT22;1009;51.436;6.972;2022-11-20T09:50:16;4.70;99.90
2012;DHT22;1009;51.436;6.972;2022-11-20T09:52:52;4.80;99.90
2012;DHT22;1009;51.436;6.972;2022-11-20T09:55:22;4.90;99.90
2012;DHT22;1009;51.436;6.972;2022-11-20T09:57:51;5.10;99.90
2012;DHT22;1009;51.436;6.972;2022-11-20T10:00:19;5.20;99.90
2012;DHT22;1009;51.436;6.972;2022-11-20T10:02:49;5.30;99.90
2012;DHT22;1009;51.436;6.972;2022-11-20T10:05:22;5.40;99.90
2012;DHT22;1009;51.436;6.972;2022-11-20T10:07:54;5.50;99.90
2012;DHT22;1009;51.436;6.972;2022-11-20T10:10:29;5.60;99.90
2012;DHT22;1009;51.436;6.972;2022-11-20T10:13:08;5.70;99.90
2012;DHT22;1009;51.436;6.972;2022-11-20T10:15:46;5.70;99.90
2012;DHT22;1009;51.436;6.972;2022-11-20T10:18:27;5.80;99.90
2012;DHT22;1009;51.436;6.972;2022-11-20T10:21:07;6.00;99.90
2012;DHT22;1009;51.436;6.972;2022-11-20T10:24:06;6.20;99.90
2012;DHT22;1009;51.436;6.972;2022-11-20T10:26:44;6.00;99.90
2012;DHT22;1009;51.436;6.972;2022-11-20T10:29:16;5.80;99.90
2012;DHT22;1009;51.436;6.972;2022-11-20T10:31:45;5.60;99.90
2012;DHT22;1009;51.436;6.972;2022-11-20T10:34:20;5.50;99.90
2012;DHT22;1009;51.436;6.972;2022-11-20T10:36:54;5.30;99.90
2012;DHT22;1009;51.436;6.972;2022-11-20T10:39:28;5.20;99.90
2012;DHT22;1009;51.436;6.972;2022-11-20T10:41:56;5.30;99.90
2012;DHT22;1009;51.436;6.972;2022-11-20T10:44:27;5.40;99.90
2012;DHT22;1009;51.436;6.972;2022-11-20T10:47:13;5.50;99.90
2012;DHT22;1009;51.436;6.972;2022-11-20T10:49:41;5.50;99.90
2012;DHT22;1009;51.436;6.972;2022-11-20T10:52:15;5.50;99.90
2012;DHT22;1009;51.436;6.972;2022-11-20T10:54:49;5.60;99.90
2012;DHT22;1009;51.436;6.972;2022-11-20T10:57:35;5.60;99.90
2012;DHT22;1009;51.436;6.972;2022-11-20T11:00:12;5.60;99.90
2012;DHT22;1009;51.436;6.972;2022-11-20T11:02:42;5.70;99.90
2012;DHT22;1009;51.436;6.972;2022-11-20T11:05:25;5.70;99.90
2012;DHT22;1009;51.436;6.972;2022-11-20T11:07:58;5.70;99.90
2012;DHT22;1009;51.436;6.972;2022-11-20T11:10:30;5.70;99.90
2012;DHT22;1009;51.436;6.972;2022-11-20T11:12:59;5.70;99.90
2012;DHT22;1009;51.436;6.972;2022-11-20T11:15:28;5.80;99.90
2012;DHT22;1009;51.436;6.972;2022-11-20T11:17:56;5.90;99.90
2012;DHT22;1009;51.436;6.972;2022-11-20T11:20:24;6.00;99.90
2012;DHT22;1009;51.436;6.972;2022-11-20T11:22:53;5.90;99.90
2012;DHT22;1009;51.436;6.972;2022-11-20T11:25:28;5.70;99.90
2012;DHT22;1009;51.436;6.972;2022-11-20T11:27:57;5.70;99.90
2012;DHT22;1009;51.436;6.972;2022-11-20T11:30:25;5.70;99.90
2012;DHT22;1009;51.436;6.972;2022-11-20T11:33:03;5.50;99.90
2012;DHT22;1009;51.436;6.972;2022-11-20T11:35:31;5.60;99.90
2012;DHT22;1009;51.436;6.972;2022-11-20T11:38:04;5.60;99.90
2012;DHT22;1009;51.436;6.972;2022-11-20T11:40:35;5.50;99.90
2012;DHT22;1009;51.436;6.972;2022-11-20T11:43:05;5.50;99.90
2012;DHT22;1009;51.436;6.972;2022-11-20T11:45:53;5.60;99.90
2012;DHT22;1009;51.436;6.972;2022-11-20T11:48:20;5.60;99.90
2012;DHT22;1009;51.436;6.972;2022-11-20T11:50:48;5.70;99.90
2012;DHT22;1009;51.436;6.972;2022-11-20T11:53:18;5.70;99.90
2012;DHT22;1009;51.436;6.972;2022-11-20T11:55:51;5.80;99.90
2012;DHT22;1009;51.436;6.972;2022-11-20T11:58:33;5.80;99.90
2012;DHT22;1009;51.436;6.972;2022-11-20T12:01:04;5.80;99.90
2012;DHT22;1009;51.436;6.972;2022-11-20T12:03:36;5.80;99.90
2012;DHT22;1009;51.436;6.972;2022-11-20T12:06:06;5.80;99.90
2012;DHT22;1009;51.436;6.972;2022-11-20T12:08:42;5.90;99.90
2012;DHT22;1009;51.436;6.972;2022-11-20T12:11:16;5.90;99.90
2012;DHT22;1009;51.436;6.972;2022-11-20T12:13:48;5.90;99.90
2012;DHT22;1009;51.436;6.972;2022-11-20T12:16:19;5.80;99.90
2012;DHT22;1009;51.436;6.972;2022-11-20T12:18:49;5.80;99.90
2012;DHT22;1009;51.436;6.972;2022-11-20T12:21:19;5.80;99.90
2012;DHT22;1009;51.436;6.972;2022-11-20T12:24:07;5.70;99.90
2012;DHT22;1009;51.436;6.972;2022-11-20T12:26:55;5.60;99.90
2012;DHT22;1009;51.436;6.972;2022-11-20T12:29:33;5.50;99.90
2012;DHT22;1009;51.436;6.972;2022-11-20T12:35:02;5.40;99.90
2012;DHT22;1009;51.436;6.972;2022-11-20T12:37:38;5.40;99.90
2012;DHT22;1009;51.436;6.972;2022-11-20T12:40:24;5.40;99.90
2012;DHT22;1009;51.436;6.972;2022-11-20T12:43:01;5.40;99.90
2012;DHT22;1009;51.436;6.972;2022-11-20T12:46:06;5.40;99.90
2012;DHT22;1009;51.436;6.972;2022-11-20T12:48:57;5.40;99.90
2012;DHT22;1009;51.436;6.972;2022-11-20T12:51:49;5.60;99.90
2012;DHT22;1009;51.436;6.972;2022-11-20T12:57:33;5.50;99.90
2012;DHT22;1009;51.436;6.972;2022-11-20T13:00:13;5.60;99.90
2012;DHT22;1009;51.436;6.972;2022-11-20T13:03:03;5.50;99.90
2012;DHT22;1009;51.436;6.972;2022-11-20T13:05:40;5.50;99.90
2012;DHT22;1009;51.436;6.972;2022-11-20T13:08:19;5.40;99.90
2012;DHT22;1009;51.436;6.972;2022-11-20T13:10:50;5.50;99.90
2012;DHT22;1009;51.436;6.972;2022-11-20T13:16:18;5.50;99.90
2012;DHT22;1009;51.436;6.972;2022-11-20T13:18:46;5.60;99.90
2012;DHT22;1009;51.436;6.972;2022-11-20T13:21:14;5.70;99.90
2012;DHT22;1009;51.436;6.972;2022-11-20T13:23:42;5.70;99.90
2012;DHT22;1009;51.436;6.972;2022-11-20T13:26:16;5.80;99.90
2012;DHT22;1009;51.436;6.972;2022-11-20T13:28:43;5.80;99.90
2012;DHT22;1009;51.436;6.972;2022-11-20T13:31:28;5.80;99.90
2012;DHT22;1009;51.436;6.972;2022-11-20T13:33:56;5.80;99.90
2012;DHT22;1009;51.436;6.972;2022-11-20T13:36:25;5.70;99.90
2012;DHT22;1009;51.436;6.972;2022-11-20T13:38:53;5.70;99.90
2012;DHT22;1009;51.436;6.972;2022-11-20T13:41:25;5.80;99.90
2012;DHT22;1009;51.436;6.972;2022-11-20T13:43:58;5.80;99.90
2012;DHT22;1009;51.436;6.972;2022-11-20T13:46:37;5.90;99.90
2012;DHT22;1009;51.436;6.972;2022-11-20T13:49:09;6.00;99.90
2012;DHT22;1009;51.436;6.972;2022-11-20T13:51:41;6.00;99.90
2012;DHT22;1009;51.436;6.972;2022-11-20T13:54:31;6.10;99.90
2012;DHT22;1009;51.436;6.972;2022-11-20T13:57:12;6.10;99.90
2012;DHT22;1009;51.436;6.972;2022-11-20T13:59:52;6.10;99.90
2012;DHT22;1009;51.436;6.972;2022-11-20T14:02:26;6.00;99.90
2012;DHT22;1009;51.436;6.972;2022-11-20T14:04:56;6.00;99.90
2012;DHT22;1009;51.436;6.972;2022-11-20T14:07:25;6.00;99.90
2012;DHT22;1009;51.436;6.972;2022-11-20T14:09:55;6.00;99.90
2012;DHT22;1009;51.436;6.972;2022-11-20T14:12:27;6.00;99.90
2012;DHT22;1009;51.436;6.972;2022-11-20T14:14:54;6.10;99.90
2012;DHT22;1009;51.436;6.972;2022-11-20T14:17:29;6.00;99.90
2012;DHT22;1009;51.436;6.972;2022-11-20T14:19:59;6.10;99.90
2012;DHT22;1009;51.436;6.972;2022-11-20T14:22:27;6.00;99.90
2012;DHT22;1009;51.436;6.972;2022-11-20T14:25:04;6.00;99.90
2012;DHT22;1009;51.436;6.972;2022-11-20T14:27:34;6.00;99.90
2012;DHT22;1009;51.436;6.972;2022-11-20T14:30:01;6.00;99.90
2012;DHT22;1009;51.436;6.972;2022-11-20T14:32:31;6.00;99.90
2012;DHT22;1009;51.436;6.972;2022-11-20T14:35:02;6.00;99.90
2012;DHT22;1009;51.436;6.972;2022-11-20T14:37:36;6.00;99.90
2012;DHT22;1009;51.436;6.972;2022-11-20T14:40:21;6.00;99.90
2012;DHT22;1009;51.436;6.972;2022-11-20T14:42:48;5.90;99.90
2012;DHT22;1009;51.436;6.972;2022-11-20T14:45:16;6.00;99.90
2012;DHT22;1009;51.436;6.972;2022-11-20T14:47:45;5.90;99.90
2012;DHT22;1009;51.436;6.972;2022-11-20T14:50:16;5.90;99.90
2012;DHT22;1009;51.436;6.972;2022-11-20T14:52:50;5.90;99.90
2012;DHT22;1009;51.436;6.972;2022-11-20T14:55:26;5.90;99.90
2012;DHT22;1009;51.436;6.972;2022-11-20T14:57:55;5.90;99.90
2012;DHT22;1009;51.436;6.972;2022-11-20T15:00:23;5.90;99.90
2012;DHT22;1009;51.436;6.972;2022-11-20T15:02:52;6.00;99.90
2012;DHT22;1009;51.436;6.972;2022-11-20T15:05:20;6.00;99.90
2012;DHT22;1009;51.436;6.972;2022-11-20T15:07:49;6.00;99.90
2012;DHT22;1009;51.436;6.972;2022-11-20T15:10:21;6.00;99.90
2012;DHT22;1009;51.436;6.972;2022-11-20T15:12:50;5.90;99.90
2012;DHT22;1009;51.436;6.972;2022-11-20T15:15:21;5.90;99.90
2012;DHT22;1009;51.436;6.972;2022-11-20T15:17:50;5.90;99.90
2012;DHT22;1009;51.436;6.972;2022-11-20T15:20:18;5.80;99.90
2012;DHT22;1009;51.436;6.972;2022-11-20T15:22:45;5.80;99.90
2012;DHT22;1009;51.436;6.972;2022-11-20T15:25:13;5.80;99.90
2012;DHT22;1009;51.436;6.972;2022-11-20T15:27:40;5.80;99.90
2012;DHT22;1009;51.436;6.972;2022-11-20T15:30:12;5.80;99.90
2012;DHT22;1009;51.436;6.972;2022-11-20T15:32:39;5.70;99.90
2012;DHT22;1009;51.436;6.972;2022-11-20T15:35:07;5.70;99.90
2012;DHT22;1009;51.436;6.972;2022-11-20T15:37:35;5.70;99.90
2012;DHT22;1009;51.436;6.972;2022-11-20T15:40:03;5.80;99.90
2012;DHT22;1009;51.436;6.972;2022-11-20T15:42:29;5.80;99.90
2012;DHT22;1009;51.436;6.972;2022-11-20T15:44:56;5.70;99.90
2012;DHT22;1009;51.436;6.972;2022-11-20T15:47:27;5.60;99.90
2012;DHT22;1009;51.436;6.972;2022-11-20T15:49:54;5.60;99.90
2012;DHT22;1009;51.436;6.972;2022-11-20T15:52:21;5.60;99.90
2012;DHT22;1009;51.436;6.972;2022-11-20T15:54:49;5.60;99.90
2012;DHT22;1009;51.436;6.972;2022-11-20T15:57:15;5.60;99.90
2012;DHT22;1009;51.436;6.972;2022-11-20T15:59:42;5.70;99.90
2012;DHT22;1009;51.436;6.972;2022-11-20T16:02:09;5.70;99.90
2012;DHT22;1009;51.436;6.972;2022-11-20T16:04:36;5.70;99.90
2012;DHT22;1009;51.436;6.972;2022-11-20T16:07:03;5.70;99.90
2012;DHT22;1009;51.436;6.972;2022-11-20T16:09:30;5.70;99.90
2012;DHT22;1009;51.436;6.972;2022-11-20T16:11:59;5.60;99.90
2012;DHT22;1009;51.436;6.972;2022-11-20T16:14:26;5.70;99.90
2012;DHT22;1009;51.436;6.972;2022-11-20T16:17:10;5.60;99.90
2012;DHT22;1009;51.436;6.972;2022-11-20T16:19:37;5.60;99.90
2012;DHT22;1009;51.436;6.972;2022-11-20T16:22:04;5.70;99.90
2012;DHT22;1009;51.436;6.972;2022-11-20T16:24:31;5.80;99.90
2012;DHT22;1009;51.436;6.972;2022-11-20T16:26:59;5.90;99.90
2012;DHT22;1009;51.436;6.972;2022-11-20T16:29:25;5.80;99.90
2012;DHT22;1009;51.436;6.972;2022-11-20T16:31:52;5.90;99.90
2012;DHT22;1009;51.436;6.972;2022-11-20T16:34:19;5.80;99.90
2012;DHT22;1009;51.436;6.972;2022-11-20T16:36:45;5.90;99.90
2012;DHT22;1009;51.436;6.972;2022-11-20T16:39:12;5.90;99.90
2012;DHT22;1009;51.436;6.972;2022-11-20T16:41:40;5.90;99.90
2012;DHT22;1009;51.436;6.972;2022-11-20T16:44:09;5.90;99.90
2012;DHT22;1009;51.436;6.972;2022-11-20T16:46:37;6.00;99.90